sensor_id;sensor_type;location;lat;lon;timestamp;pressure;altitude;pressure_sealevel;temperature;humidity
76434;BME280;65265;53.200;6.080;2023-05-16T00:02:50;101891.19;;;8.34;86.50
76434;BME280;65265;53.200;6.080;2023-05-16T00:07:44;101889.03;;;8.27;87.03
76434;BME280;65265;53.200;6.080;2023-05-16T00:12:37;101894.59;;;8.22;86.98
76434;BME280;65265;53.200;6.080;2023-05-16T00:17:29;101888.88;;;8.13;87.65
76434;BME280;65265;53.200;6.080;2023-05-16T00:22:21;101896.50;;;8.13;88.07
76434;BME280;65265;53.200;6.080;2023-05-16T00:27:15;101898.50;;;8.17;87.67
76434;BME280;65265;53.200;6.080;2023-05-16T00:32:06;101899.97;;;8.13;87.29
76434;BME280;65265;53.200;6.080;2023-05-16T00:36:58;101905.53;;;8.08;88.22
76434;BME280;65265;53.200;6.080;2023-05-16T00:41:50;101908.63;;;8.04;88.20
76434;BME280;65265;53.200;6.080;2023-05-16T00:46:43;101908.25;;;7.98;88.18
76434;BME280;65265;53.200;6.080;2023-05-16T00:51:35;101908.53;;;7.89;88.31
76434;BME280;65265;53.200;6.080;2023-05-16T00:56:29;101904.97;;;7.87;88.04
76434;BME280;65265;53.200;6.080;2023-05-16T01:01:22;101913.09;;;7.82;87.94
76434;BME280;65265;53.200;6.080;2023-05-16T01:06:15;101913.66;;;7.78;88.30
76434;BME280;65265;53.200;6.080;2023-05-16T01:11:12;101899.06;;;7.75;88.81
76434;BME280;65265;53.200;6.080;2023-05-16T01:16:12;101905.91;;;7.76;89.27
76434;BME280;65265;53.200;6.080;2023-05-16T01:21:11;101903.06;;;7.72;89.29
76434;BME280;65265;53.200;6.080;2023-05-16T01:26:29;101904.31;;;7.65;89.69
76434;BME280;65265;53.200;6.080;2023-05-16T01:31:22;101904.03;;;7.61;90.46
76434;BME280;65265;53.200;6.080;2023-05-16T01:36:20;101903.59;;;7.55;90.59
76434;BME280;65265;53.200;6.080;2023-05-16T01:41:18;101908.47;;;7.52;91.11
76434;BME280;65265;53.200;6.080;2023-05-16T01:46:14;101906.28;;;7.45;91.41
76434;BME280;65265;53.200;6.080;2023-05-16T01:51:06;101904.22;;;7.39;91.50
76434;BME280;65265;53.200;6.080;2023-05-16T01:56:00;101902.31;;;7.37;91.11
76434;BME280;65265;53.200;6.080;2023-05-16T02:00:52;101910.75;;;7.36;91.57
76434;BME280;65265;53.200;6.080;2023-05-16T02:05:45;101909.88;;;7.35;91.75
76434;BME280;65265;53.200;6.080;2023-05-16T02:10:37;101909.75;;;7.34;91.62
76434;BME280;65265;53.200;6.080;2023-05-16T02:15:29;101901.81;;;7.29;92.10
76434;BME280;65265;53.200;6.080;2023-05-16T02:20:20;101905.78;;;7.26;91.70
76434;BME280;65265;53.200;6.080;2023-05-16T02:25:14;101909.56;;;7.19;91.72
76434;BME280;65265;53.200;6.080;2023-05-16T02:30:06;101902.41;;;7.14;91.91
76434;BME280;65265;53.200;6.080;2023-05-16T02:34:57;101906.38;;;7.10;92.22
76434;BME280;65265;53.200;6.080;2023-05-16T02:39:49;101911.19;;;7.06;92.04
76434;BME280;65265;53.200;6.080;2023-05-16T02:44:42;101919.47;;;7.03;91.95
76434;BME280;65265;53.200;6.080;2023-05-16T02:49:33;101919.91;;;6.98;91.95
76434;BME280;65265;53.200;6.080;2023-05-16T02:54:25;101920.56;;;6.96;91.72
76434;BME280;65265;53.200;6.080;2023-05-16T02:59:16;101919.47;;;6.92;91.82
76434;BME280;65265;53.200;6.080;2023-05-16T03:04:09;101914.19;;;6.89;91.82
76434;BME280;65265;53.200;6.080;2023-05-16T03:09:01;101915.16;;;6.91;92.10
76434;BME280;65265;53.200;6.080;2023-05-16T03:13:53;101910.84;;;6.90;92.34
76434;BME280;65265;53.200;6.080;2023-05-16T03:18:44;101915.94;;;6.90;92.22
76434;BME280;65265;53.200;6.080;2023-05-16T03:23:37;101925.91;;;6.87;92.06
76434;BME280;65265;53.200;6.080;2023-05-16T03:28:29;101926.00;;;6.89;91.98
76434;BME280;65265;53.200;6.080;2023-05-16T03:33:20;101934.53;;;6.89;91.84
76434;BME280;65265;53.200;6.080;2023-05-16T03:38:12;101932.75;;;6.88;92.02
76434;BME280;65265;53.200;6.080;2023-05-16T03:43:06;101931.19;;;6.90;92.53
76434;BME280;65265;53.200;6.080;2023-05-16T03:47:57;101927.88;;;6.91;92.58
76434;BME280;65265;53.200;6.080;2023-05-16T03:52:49;101931.19;;;6.90;92.40
76434;BME280;65265;53.200;6.080;2023-05-16T03:57:42;101932.09;;;6.91;92.43
76434;BME280;65265;53.200;6.080;2023-05-16T04:02:35;101937.97;;;6.90;92.45
76434;BME280;65265;53.200;6.080;2023-05-16T04:07:26;101932.97;;;6.91;92.67
76434;BME280;65265;53.200;6.080;2023-05-16T04:12:18;101946.66;;;6.93;93.00
76434;BME280;65265;53.200;6.080;2023-05-16T04:17:09;101939.28;;;6.96;93.17
76434;BME280;65265;53.200;6.080;2023-05-16T04:22:03;101941.13;;;6.98;92.87
76434;BME280;65265;53.200;6.080;2023-05-16T04:26:55;101949.00;;;7.02;93.00
76434;BME280;65265;53.200;6.080;2023-05-16T04:31:46;101952.63;;;7.05;93.02
76434;BME280;65265;53.200;6.080;2023-05-16T04:36:38;101957.16;;;7.09;93.16
76434;BME280;65265;53.200;6.080;2023-05-16T04:41:31;101959.47;;;7.17;93.66
76434;BME280;65265;53.200;6.080;2023-05-16T04:46:25;101961.44;;;7.21;93.75
76434;BME280;65265;53.200;6.080;2023-05-16T04:51:16;101960.25;;;7.28;93.62
76434;BME280;65265;53.200;6.080;2023-05-16T04:56:08;101974.47;;;7.37;93.47
76434;BME280;65265;53.200;6.080;2023-05-16T05:01:00;101975.97;;;7.47;93.68
76434;BME280;65265;53.200;6.080;2023-05-16T05:05:52;101974.88;;;7.55;93.98
76434;BME280;65265;53.200;6.080;2023-05-16T05:10:44;101973.75;;;7.63;94.56
76434;BME280;65265;53.200;6.080;2023-05-16T05:15:35;101981.44;;;7.76;94.27
76434;BME280;65265;53.200;6.080;2023-05-16T05:20:28;101984.66;;;7.98;95.24
76434;BME280;65265;53.200;6.080;2023-05-16T05:25:20;101981.56;;;8.15;95.14
76434;BME280;65265;53.200;6.080;2023-05-16T05:30:12;101996.66;;;8.23;93.67
76434;BME280;65265;53.200;6.080;2023-05-16T05:35:04;101988.28;;;8.26;92.61
76434;BME280;65265;53.200;6.080;2023-05-16T05:39:57;101994.50;;;8.29;91.01
76434;BME280;65265;53.200;6.080;2023-05-16T05:44:48;101999.59;;;8.42;91.50
76434;BME280;65265;53.200;6.080;2023-05-16T05:49:40;102021.34;;;8.62;92.01
76434;BME280;65265;53.200;6.080;2023-05-16T05:54:32;102016.03;;;8.59;92.45
76434;BME280;65265;53.200;6.080;2023-05-16T05:59:25;102016.91;;;8.59;93.22
76434;BME280;65265;53.200;6.080;2023-05-16T06:04:16;102014.19;;;8.69;94.58
76434;BME280;65265;53.200;6.080;2023-05-16T06:09:08;102018.59;;;8.72;92.76
76434;BME280;65265;53.200;6.080;2023-05-16T06:14:00;102026.34;;;8.73;91.45
76434;BME280;65265;53.200;6.080;2023-05-16T06:18:52;102032.72;;;8.80;91.11
76434;BME280;65265;53.200;6.080;2023-05-16T06:23:44;102036.25;;;8.82;91.08
76434;BME280;65265;53.200;6.080;2023-05-16T06:28:35;102033.34;;;8.89;91.39
76434;BME280;65265;53.200;6.080;2023-05-16T06:33:27;102035.03;;;9.01;91.92
76434;BME280;65265;53.200;6.080;2023-05-16T06:38:20;102033.03;;;9.10;90.31
76434;BME280;65265;53.200;6.080;2023-05-16T06:43:11;102037.06;;;9.20;91.20
76434;BME280;65265;53.200;6.080;2023-05-16T06:48:03;102030.97;;;9.43;89.68
76434;BME280;65265;53.200;6.080;2023-05-16T06:52:54;102041.41;;;9.74;90.65
76434;BME280;65265;53.200;6.080;2023-05-16T06:57:48;102044.41;;;9.94;89.51
76434;BME280;65265;53.200;6.080;2023-05-16T07:02:39;102039.78;;;10.02;85.72
76434;BME280;65265;53.200;6.080;2023-05-16T07:07:30;102043.88;;;10.13;84.68
76434;BME280;65265;53.200;6.080;2023-05-16T07:12:22;102047.13;;;10.10;82.79
76434;BME280;65265;53.200;6.080;2023-05-16T07:17:15;102054.69;;;9.96;82.65
76434;BME280;65265;53.200;6.080;2023-05-16T07:22:07;102051.09;;;10.05;83.27
76434;BME280;65265;53.200;6.080;2023-05-16T07:26:58;102055.72;;;10.40;81.23
76434;BME280;65265;53.200;6.080;2023-05-16T07:31:50;102062.22;;;10.62;78.60
76434;BME280;65265;53.200;6.080;2023-05-16T07:36:43;102071.63;;;10.49;75.33
76434;BME280;65265;53.200;6.080;2023-05-16T07:41:34;102069.16;;;10.50;76.66
76434;BME280;65265;53.200;6.080;2023-05-16T07:46:26;102067.22;;;10.61;76.25
76434;BME280;65265;53.200;6.080;2023-05-16T07:51:17;102063.19;;;10.79;78.83
76434;BME280;65265;53.200;6.080;2023-05-16T07:56:10;102066.16;;;11.15;78.50
76434;BME280;65265;53.200;6.080;2023-05-16T08:01:02;102058.13;;;11.24;76.35
76434;BME280;65265;53.200;6.080;2023-05-16T08:05:53;102063.28;;;11.40;76.44
76434;BME280;65265;53.200;6.080;2023-05-16T08:10:45;102066.97;;;11.59;79.43
76434;BME280;65265;53.200;6.080;2023-05-16T08:15:38;102067.88;;;11.45;77.08
76434;BME280;65265;53.200;6.080;2023-05-16T08:20:29;102069.25;;;11.55;76.89
76434;BME280;65265;53.200;6.080;2023-05-16T08:25:21;102065.84;;;11.85;74.56
76434;BME280;65265;53.200;6.080;2023-05-16T08:30:13;102067.97;;;12.23;76.29
76434;BME280;65265;53.200;6.080;2023-05-16T08:35:07;102066.63;;;12.63;73.18
76434;BME280;65265;53.200;6.080;2023-05-16T08:40:00;102070.91;;;12.96;73.15
76434;BME280;65265;53.200;6.080;2023-05-16T08:44:51;102074.81;;;13.06;71.68
76434;BME280;65265;53.200;6.080;2023-05-16T08:49:43;102070.50;;;12.55;69.52
76434;BME280;65265;53.200;6.080;2023-05-16T08:54:38;102084.84;;;12.36;69.97
76434;BME280;65265;53.200;6.080;2023-05-16T08:59:31;102092.88;;;12.10;69.53
76434;BME280;65265;53.200;6.080;2023-05-16T09:04:23;102089.66;;;11.98;73.33
76434;BME280;65265;53.200;6.080;2023-05-16T09:09:16;102088.66;;;12.76;73.97
76434;BME280;65265;53.200;6.080;2023-05-16T09:14:10;102087.00;;;13.27;68.47
76434;BME280;65265;53.200;6.080;2023-05-16T09:19:02;102077.75;;;13.48;67.93
76434;BME280;65265;53.200;6.080;2023-05-16T09:23:54;102080.84;;;14.32;66.82
76434;BME280;65265;53.200;6.080;2023-05-16T09:28:46;102076.13;;;14.61;64.87
76434;BME280;65265;53.200;6.080;2023-05-16T09:33:40;102088.22;;;15.23;65.08
76434;BME280;65265;53.200;6.080;2023-05-16T09:38:32;102088.59;;;15.53;62.91
76434;BME280;65265;53.200;6.080;2023-05-16T09:43:25;102096.16;;;15.07;63.12
76434;BME280;65265;53.200;6.080;2023-05-16T09:48:17;102094.34;;;15.05;62.87
76434;BME280;65265;53.200;6.080;2023-05-16T09:53:12;102094.03;;;16.03;56.01
76434;BME280;65265;53.200;6.080;2023-05-16T09:58:04;102100.22;;;16.53;58.24
76434;BME280;65265;53.200;6.080;2023-05-16T10:02:56;102105.00;;;15.75;57.84
76434;BME280;65265;53.200;6.080;2023-05-16T10:07:48;102105.81;;;14.92;62.54
76434;BME280;65265;53.200;6.080;2023-05-16T10:12:42;102099.47;;;14.84;61.86
76434;BME280;65265;53.200;6.080;2023-05-16T10:17:38;102102.00;;;15.03;60.58
76434;BME280;65265;53.200;6.080;2023-05-16T10:22:32;102104.28;;;14.77;61.13
76434;BME280;65265;53.200;6.080;2023-05-16T10:27:24;102109.16;;;14.50;61.32
76434;BME280;65265;53.200;6.080;2023-05-16T10:32:17;102098.59;;;14.65;64.32
76434;BME280;65265;53.200;6.080;2023-05-16T10:37:09;102115.22;;;15.11;61.78
76434;BME280;65265;53.200;6.080;2023-05-16T10:42:01;102116.47;;;15.41;61.40
76434;BME280;65265;53.200;6.080;2023-05-16T10:46:52;102107.22;;;15.66;60.76
76434;BME280;65265;53.200;6.080;2023-05-16T10:52:00;102104.16;;;15.76;62.84
76434;BME280;65265;53.200;6.080;2023-05-16T10:56:54;102099.44;;;15.44;59.47
76434;BME280;65265;53.200;6.080;2023-05-16T11:01:51;102113.63;;;14.94;63.00
76434;BME280;65265;53.200;6.080;2023-05-16T11:06:48;102108.63;;;15.17;62.61
76434;BME280;65265;53.200;6.080;2023-05-16T11:11:42;102112.38;;;15.66;61.88
76434;BME280;65265;53.200;6.080;2023-05-16T11:16:35;102125.53;;;15.52;63.11
76434;BME280;65265;53.200;6.080;2023-05-16T11:26:56;102108.47;;;15.55;66.55
76434;BME280;65265;53.200;6.080;2023-05-16T11:31:48;102111.50;;;15.45;61.49
76434;BME280;65265;53.200;6.080;2023-05-16T11:36:39;102116.59;;;15.23;60.97
76434;BME280;65265;53.200;6.080;2023-05-16T11:41:31;102118.81;;;15.77;62.82
76434;BME280;65265;53.200;6.080;2023-05-16T11:46:25;102111.59;;;16.13;60.42
76434;BME280;65265;53.200;6.080;2023-05-16T11:51:17;102116.13;;;16.18;56.72
76434;BME280;65265;53.200;6.080;2023-05-16T11:56:10;102123.09;;;15.99;55.08
76434;BME280;65265;53.200;6.080;2023-05-16T12:01:03;102126.03;;;15.86;59.12
76434;BME280;65265;53.200;6.080;2023-05-16T12:05:56;102121.94;;;16.13;57.99
76434;BME280;65265;53.200;6.080;2023-05-16T12:10:48;102114.59;;;15.79;57.13
76434;BME280;65265;53.200;6.080;2023-05-16T12:15:40;102124.97;;;16.03;57.85
76434;BME280;65265;53.200;6.080;2023-05-16T12:20:32;102120.94;;;15.87;57.59
76434;BME280;65265;53.200;6.080;2023-05-16T12:25:27;102123.63;;;15.68;56.85
76434;BME280;65265;53.200;6.080;2023-05-16T12:30:21;102117.63;;;15.69;57.71
76434;BME280;65265;53.200;6.080;2023-05-16T12:35:17;102129.13;;;16.21;57.36
76434;BME280;65265;53.200;6.080;2023-05-16T12:40:09;102128.00;;;17.08;54.11
76434;BME280;65265;53.200;6.080;2023-05-16T12:45:04;102136.56;;;17.06;52.74
76434;BME280;65265;53.200;6.080;2023-05-16T12:49:55;102138.28;;;17.57;53.49
76434;BME280;65265;53.200;6.080;2023-05-16T12:54:47;102147.81;;;17.58;50.69
76434;BME280;65265;53.200;6.080;2023-05-16T12:59:38;102144.09;;;17.76;49.05
76434;BME280;65265;53.200;6.080;2023-05-16T13:09:23;102141.09;;;16.88;51.96
76434;BME280;65265;53.200;6.080;2023-05-16T13:14:15;102140.28;;;17.14;57.96
76434;BME280;65265;53.200;6.080;2023-05-16T13:19:07;102135.09;;;16.89;52.90
76434;BME280;65265;53.200;6.080;2023-05-16T13:24:00;102146.56;;;16.49;55.00
76434;BME280;65265;53.200;6.080;2023-05-16T13:28:52;102143.59;;;16.85;57.98
76434;BME280;65265;53.200;6.080;2023-05-16T13:33:44;102135.00;;;17.11;56.28
76434;BME280;65265;53.200;6.080;2023-05-16T13:38:35;102144.94;;;16.99;58.64
76434;BME280;65265;53.200;6.080;2023-05-16T13:43:28;102145.00;;;16.77;56.18
76434;BME280;65265;53.200;6.080;2023-05-16T13:48:20;102145.38;;;16.19;57.63
76434;BME280;65265;53.200;6.080;2023-05-16T13:53:11;102137.88;;;16.25;61.90
76434;BME280;65265;53.200;6.080;2023-05-16T13:58:03;102146.13;;;16.38;59.82
76434;BME280;65265;53.200;6.080;2023-05-16T14:02:56;102135.41;;;16.06;58.04
76434;BME280;65265;53.200;6.080;2023-05-16T14:07:47;102139.09;;;16.34;57.32
76434;BME280;65265;53.200;6.080;2023-05-16T14:12:39;102139.56;;;16.46;55.75
76434;BME280;65265;53.200;6.080;2023-05-16T14:17:31;102139.97;;;16.35;57.75
76434;BME280;65265;53.200;6.080;2023-05-16T14:22:24;102145.78;;;16.29;57.49
76434;BME280;65265;53.200;6.080;2023-05-16T14:27:15;102149.06;;;16.25;57.10
76434;BME280;65265;53.200;6.080;2023-05-16T14:32:08;102154.56;;;16.34;55.58
76434;BME280;65265;53.200;6.080;2023-05-16T14:37:00;102145.56;;;16.23;56.53
76434;BME280;65265;53.200;6.080;2023-05-16T14:41:53;102149.25;;;16.08;55.74
76434;BME280;65265;53.200;6.080;2023-05-16T14:46:44;102156.81;;;15.81;56.08
76434;BME280;65265;53.200;6.080;2023-05-16T14:51:36;102152.63;;;15.63;55.07
76434;BME280;65265;53.200;6.080;2023-05-16T14:56:28;102146.72;;;15.65;56.58
76434;BME280;65265;53.200;6.080;2023-05-16T15:01:22;102152.28;;;15.76;58.34
76434;BME280;65265;53.200;6.080;2023-05-16T15:06:13;102152.28;;;15.76;57.00
76434;BME280;65265;53.200;6.080;2023-05-16T15:11:05;102154.25;;;15.61;57.57
76434;BME280;65265;53.200;6.080;2023-05-16T15:15:56;102168.41;;;15.50;57.99
76434;BME280;65265;53.200;6.080;2023-05-16T15:20:50;102168.47;;;15.31;57.41
76434;BME280;65265;53.200;6.080;2023-05-16T15:25:42;102173.47;;;14.88;58.00
76434;BME280;65265;53.200;6.080;2023-05-16T15:30:33;102165.56;;;14.65;60.39
76434;BME280;65265;53.200;6.080;2023-05-16T15:35:25;102181.22;;;14.50;57.37
76434;BME280;65265;53.200;6.080;2023-05-16T15:40:20;102176.13;;;14.33;59.86
76434;BME280;65265;53.200;6.080;2023-05-16T15:45:11;102183.66;;;14.29;59.18
76434;BME280;65265;53.200;6.080;2023-05-16T15:50:03;102186.88;;;14.25;58.29
76434;BME280;65265;53.200;6.080;2023-05-16T15:54:55;102183.66;;;14.11;59.39
76434;BME280;65265;53.200;6.080;2023-05-16T15:59:48;102184.84;;;14.18;59.06
76434;BME280;65265;53.200;6.080;2023-05-16T16:04:39;102188.22;;;14.17;58.95
76434;BME280;65265;53.200;6.080;2023-05-16T16:09:31;102182.63;;;14.08;63.36
76434;BME280;65265;53.200;6.080;2023-05-16T16:14:23;102185.69;;;14.18;58.44
76434;BME280;65265;53.200;6.080;2023-05-16T16:19:16;102186.56;;;14.36;61.55
76434;BME280;65265;53.200;6.080;2023-05-16T16:24:08;102185.97;;;14.42;56.51
76434;BME280;65265;53.200;6.080;2023-05-16T16:28:59;102179.19;;;14.43;57.35
76434;BME280;65265;53.200;6.080;2023-05-16T16:33:51;102191.75;;;14.38;59.57
76434;BME280;65265;53.200;6.080;2023-05-16T16:38:45;102190.97;;;14.39;61.77
76434;BME280;65265;53.200;6.080;2023-05-16T16:43:36;102184.13;;;14.77;58.86
76434;BME280;65265;53.200;6.080;2023-05-16T16:48:29;102188.81;;;14.66;59.10
76434;BME280;65265;53.200;6.080;2023-05-16T16:53:23;102198.31;;;14.86;62.16
76434;BME280;65265;53.200;6.080;2023-05-16T16:58:17;102191.19;;;14.81;61.13
76434;BME280;65265;53.200;6.080;2023-05-16T17:03:08;102190.56;;;14.67;61.58
76434;BME280;65265;53.200;6.080;2023-05-16T17:08:00;102201.53;;;14.44;61.95
76434;BME280;65265;53.200;6.080;2023-05-16T17:12:51;102201.56;;;14.27;62.74
76434;BME280;65265;53.200;6.080;2023-05-16T17:17:45;102199.50;;;14.20;62.63
76434;BME280;65265;53.200;6.080;2023-05-16T17:22:38;102202.03;;;14.01;62.99
76434;BME280;65265;53.200;6.080;2023-05-16T17:27:30;102211.78;;;13.91;63.90
76434;BME280;65265;53.200;6.080;2023-05-16T17:32:22;102217.00;;;13.75;63.56
76434;BME280;65265;53.200;6.080;2023-05-16T17:37:14;102222.50;;;13.65;64.76
76434;BME280;65265;53.200;6.080;2023-05-16T17:42:06;102220.63;;;13.45;64.56
76434;BME280;65265;53.200;6.080;2023-05-16T17:46:58;102214.31;;;13.38;64.30
76434;BME280;65265;53.200;6.080;2023-05-16T17:51:50;102218.69;;;13.23;67.06
76434;BME280;65265;53.200;6.080;2023-05-16T17:56:44;102232.44;;;13.08;67.71
76434;BME280;65265;53.200;6.080;2023-05-16T18:01:35;102243.56;;;12.92;69.46
76434;BME280;65265;53.200;6.080;2023-05-16T18:06:27;102240.50;;;12.83;69.60
76434;BME280;65265;53.200;6.080;2023-05-16T18:11:19;102243.53;;;12.76;70.86
76434;BME280;65265;53.200;6.080;2023-05-16T18:16:13;102249.03;;;12.66;71.71
76434;BME280;65265;53.200;6.080;2023-05-16T18:21:04;102259.03;;;12.62;72.80
76434;BME280;65265;53.200;6.080;2023-05-16T18:25:56;102259.91;;;12.62;72.10
76434;BME280;65265;53.200;6.080;2023-05-16T18:30:48;102269.84;;;12.56;72.57
76434;BME280;65265;53.200;6.080;2023-05-16T18:35:40;102277.59;;;12.42;73.48
76434;BME280;65265;53.200;6.080;2023-05-16T18:40:32;102286.03;;;12.25;74.19
76434;BME280;65265;53.200;6.080;2023-05-16T18:45:23;102285.44;;;12.14;75.55
76434;BME280;65265;53.200;6.080;2023-05-16T18:50:15;102294.75;;;12.12;76.59
76434;BME280;65265;53.200;6.080;2023-05-16T18:55:08;102298.81;;;12.09;76.77
76434;BME280;65265;53.200;6.080;2023-05-16T19:00:00;102298.28;;;12.00;76.97
76434;BME280;65265;53.200;6.080;2023-05-16T19:04:53;102296.97;;;11.92;77.37
76434;BME280;65265;53.200;6.080;2023-05-16T19:09:44;102300.78;;;11.84;77.76
76434;BME280;65265;53.200;6.080;2023-05-16T19:14:37;102295.56;;;11.68;78.15
76434;BME280;65265;53.200;6.080;2023-05-16T19:19:29;102311.69;;;11.53;78.36
76434;BME280;65265;53.200;6.080;2023-05-16T19:24:21;102302.19;;;11.37;78.69
76434;BME280;65265;53.200;6.080;2023-05-16T19:29:12;102317.81;;;11.27;78.79
76434;BME280;65265;53.200;6.080;2023-05-16T19:34:06;102311.59;;;11.09;80.03
76434;BME280;65265;53.200;6.080;2023-05-16T19:38:57;102317.91;;;11.01;80.36
76434;BME280;65265;53.200;6.080;2023-05-16T19:43:50;102313.81;;;10.90;81.11
76434;BME280;65265;53.200;6.080;2023-05-16T19:48:41;102327.06;;;10.83;82.13
76434;BME280;65265;53.200;6.080;2023-05-16T19:53:34;102320.13;;;10.82;82.83
76434;BME280;65265;53.200;6.080;2023-05-16T19:58:25;102328.81;;;10.84;83.31
76434;BME280;65265;53.200;6.080;2023-05-16T20:03:17;102320.13;;;10.82;83.62
76434;BME280;65265;53.200;6.080;2023-05-16T20:08:09;102331.28;;;10.83;84.07
76434;BME280;65265;53.200;6.080;2023-05-16T20:13:02;102336.28;;;10.81;84.87
76434;BME280;65265;53.200;6.080;2023-05-16T20:17:53;102332.94;;;10.82;84.62
76434;BME280;65265;53.200;6.080;2023-05-16T20:22:45;102329.59;;;10.83;84.45
76434;BME280;65265;53.200;6.080;2023-05-16T20:27:37;102333.03;;;10.84;84.69
76434;BME280;65265;53.200;6.080;2023-05-16T20:32:30;102331.28;;;10.83;85.01
76434;BME280;65265;53.200;6.080;2023-05-16T20:37:22;102324.38;;;10.82;85.23
76434;BME280;65265;53.200;6.080;2023-05-16T20:42:15;102327.91;;;10.84;84.84
76434;BME280;65265;53.200;6.080;2023-05-16T20:47:07;102328.41;;;10.78;84.83
76434;BME280;65265;53.200;6.080;2023-05-16T20:52:00;102333.34;;;10.75;85.56
76434;BME280;65265;53.200;6.080;2023-05-16T20:56:51;102336.00;;;10.77;85.77
76434;BME280;65265;53.200;6.080;2023-05-16T21:01:42;102348.09;;;10.79;85.64
76434;BME280;65265;53.200;6.080;2023-05-16T21:06:34;102338.84;;;10.81;86.13
76434;BME280;65265;53.200;6.080;2023-05-16T21:11:27;102336.09;;;10.78;86.93
76434;BME280;65265;53.200;6.080;2023-05-16T21:16:21;102325.88;;;10.78;87.04
76434;BME280;65265;53.200;6.080;2023-05-16T21:21:13;102322.16;;;10.73;86.70
76434;BME280;65265;53.200;6.080;2023-05-16T21:26:04;102330.41;;;10.69;87.04
76434;BME280;65265;53.200;6.080;2023-05-16T21:30:58;102343.00;;;10.66;87.55
76434;BME280;65265;53.200;6.080;2023-05-16T21:35:49;102331.00;;;10.65;87.78
76434;BME280;65265;53.200;6.080;2023-05-16T21:40:42;102337.91;;;10.66;88.02
76434;BME280;65265;53.200;6.080;2023-05-16T21:45:33;102338.06;;;10.69;87.76
76434;BME280;65265;53.200;6.080;2023-05-16T21:50:26;102343.91;;;10.67;87.09
76434;BME280;65265;53.200;6.080;2023-05-16T21:55:18;102343.63;;;10.62;87.18
76434;BME280;65265;53.200;6.080;2023-05-16T22:00:10;102345.97;;;10.59;86.57
76434;BME280;65265;53.200;6.080;2023-05-16T22:05:02;102361.53;;;10.62;86.88
76434;BME280;65265;53.200;6.080;2023-05-16T22:09:57;102354.63;;;10.61;86.46
76434;BME280;65265;53.200;6.080;2023-05-16T22:14:48;102360.72;;;10.63;86.50
76434;BME280;65265;53.200;6.080;2023-05-16T22:19:40;102356.81;;;10.55;85.93
76434;BME280;65265;53.200;6.080;2023-05-16T22:24:31;102351.28;;;10.49;85.51
76434;BME280;65265;53.200;6.080;2023-05-16T22:29:24;102353.06;;;10.37;85.05
76434;BME280;65265;53.200;6.080;2023-05-16T22:34:16;102361.63;;;10.25;85.26
76434;BME280;65265;53.200;6.080;2023-05-16T22:39:08;102359.44;;;10.18;85.19
76434;BME280;65265;53.200;6.080;2023-05-16T22:43:59;102363.28;;;10.11;85.24
76434;BME280;65265;53.200;6.080;2023-05-16T22:48:52;102382.56;;;10.06;85.32
76434;BME280;65265;53.200;6.080;2023-05-16T22:53:44;102376.00;;;9.98;85.04
76434;BME280;65265;53.200;6.080;2023-05-16T22:58:35;102393.09;;;9.86;84.60
76434;BME280;65265;53.200;6.080;2023-05-16T23:03:27;102404.16;;;9.74;84.46
76434;BME280;65265;53.200;6.080;2023-05-16T23:08:20;102408.53;;;9.63;82.75
76434;BME280;65265;53.200;6.080;2023-05-16T23:13:11;102412.81;;;9.51;82.31
76434;BME280;65265;53.200;6.080;2023-05-16T23:18:04;102410.75;;;9.35;82.53
76434;BME280;65265;53.200;6.080;2023-05-16T23:22:55;102410.56;;;9.20;82.41
76434;BME280;65265;53.200;6.080;2023-05-16T23:27:48;102417.28;;;9.07;82.32
76434;BME280;65265;53.200;6.080;2023-05-16T23:32:39;102419.97;;;8.97;83.33
76434;BME280;65265;53.200;6.080;2023-05-16T23:37:31;102410.69;;;8.86;83.76
76434;BME280;65265;53.200;6.080;2023-05-16T23:42:22;102414.91;;;8.74;84.11
76434;BME280;65265;53.200;6.080;2023-05-16T23:47:15;102430.00;;;8.59;84.51
76434;BME280;65265;53.200;6.080;2023-05-16T23:52:07;102424.88;;;8.48;84.78
76434;BME280;65265;53.200;6.080;2023-05-16T23:56:59;102425.66;;;8.35;85.07
